Portada
METAR-TAF:

METAR-TAF

Aeroports :

Bangui, República Centreafricana

latitud: 04-24N, longitud: 018-31E, altitud: 365 m

Observació

L'informe es va fer fa 53 minuts, a les 00:00 UTC
Vent calma
Temperatura 24°C
Humitat 100%
Pressió 1012 hPa
Visibilitat: 8000 m
Escasses núvols a una alçada de 1000 ft

METAR: FEFF 070000Z 00000KT 8000 FEW010 24/24 Q1012 NOSIG

Hora: 01:53 (00:53 UTC)

Pronòstic

L'informe es va fer fa 1 hora i 53 minuts, a les 23:00 UTC
Pronòstic vàlid del 07 a les 00 UTC al 08 a les 06 UTC
Vent 2 kt amb direcció variable
Visibilitat: 8000 m
Escasses núvols a una alçada de 1000 ft
Probabilitat 30% :
Temporalment
l' 07 a les 03 UTC al 07 a les 07 UTC
Vent 15 kt amb direcció variable
Cel ennuvolat a una alçada de 1300 ft
Escasses núvols a una alçada de 3300 ft, Cumulonimbus.
tempesta, pluja

TAF: FEFF 062300Z 0700/0806 VRB02KT 8000 FEW010 PROB30 TEMPO 0703/0707 VRB15KT -TSRA BKN013 FEW033CB

Observacions i pronòstics meteorològics de més de 4000 aeroports (METAR i TAF).

Les estacions disponibles són els punts grocs i vermells al mapa.

Posi el ratolí al punt desitjat per veure el nom de l'estació.

Feu clic per veure les observacions i els pronòstics meteorològics.

Per canviar el mapa: feu clic els botons verds amb una creu de color negre per apropar; al botó verd amb un guió per allunyar la imatge; o en les fletxes verdes per a mapes adjacents.


METAR-TAF: